createdAt,value
2019-01-06T00:00:28.533Z,6.27
2019-01-06T00:03:04.324Z,6.13
2019-01-06T00:05:34.170Z,5.67
2019-01-06T00:08:03.992Z,4.37
2019-01-06T00:10:42.740Z,3.07
2019-01-06T00:13:29.165Z,3.13
2019-01-06T00:16:11.233Z,2.87
2019-01-06T00:18:50.272Z,2.70
2019-01-06T00:21:26.166Z,2.70
2019-01-06T00:24:11.268Z,2.80
2019-01-06T00:26:41.102Z,2.80
2019-01-06T00:32:17.379Z,2.70
2019-01-06T00:34:53.164Z,2.67
2019-01-06T00:37:37.974Z,2.10
2019-01-06T00:40:07.871Z,2.27
2019-01-06T00:42:43.653Z,2.37
2019-01-06T00:45:13.573Z,2.93
2019-01-06T00:47:46.332Z,3.00
2019-01-06T00:50:22.165Z,3.23
2019-01-06T00:53:08.577Z,3.00
2019-01-06T01:30:04.776Z,4.60
2019-01-06T01:35:28.796Z,4.10
2019-01-06T01:38:15.276Z,4.50
2019-01-06T01:40:48.105Z,4.60
2019-01-06T01:43:17.973Z,4.47
2019-01-06T01:46:04.445Z,5.10
2019-01-06T01:48:34.244Z,5.03
2019-01-06T01:51:20.404Z,5.50
2019-01-06T01:54:06.800Z,5.57
2019-01-06T01:56:42.468Z,4.30
2019-01-06T01:59:24.306Z,5.10
2019-01-06T02:02:09.984Z,4.50
2019-01-06T02:04:40.730Z,5.33
2019-01-06T02:07:10.552Z,5.47
2019-01-06T02:09:40.393Z,5.00
2019-01-06T02:12:10.240Z,4.80
2019-01-06T02:14:56.605Z,5.60
2019-01-06T02:17:30.467Z,5.50
2019-01-06T02:20:13.164Z,5.63
2019-01-06T02:23:00.557Z,5.07
2019-01-06T02:25:33.609Z,4.70
2019-01-06T02:28:15.408Z,5.30
2019-01-06T02:30:48.246Z,5.10
2019-01-06T02:33:33.278Z,5.40
2019-01-06T02:36:18.090Z,5.20
2019-01-06T02:38:47.965Z,5.47
2019-01-06T02:41:34.321Z,5.70
2019-01-06T02:44:20.467Z,5.90
2019-01-06T02:46:50.305Z,5.40
2019-01-06T02:49:20.133Z,5.05
2019-01-06T02:52:06.393Z,5.50
2019-01-06T02:54:36.245Z,5.07
2019-01-06T02:57:18.117Z,5.20
2019-01-06T03:00:04.059Z,6.15
2019-01-06T03:02:50.508Z,5.60
2019-01-06T03:05:37.106Z,5.50
2019-01-06T03:08:09.824Z,5.33
2019-01-06T03:10:45.359Z,5.60
2019-01-06T03:13:31.494Z,5.90
2019-01-06T03:16:07.610Z,6.20
2019-01-06T03:18:52.688Z,5.77
2019-01-06T03:21:22.517Z,5.80
2019-01-06T03:23:58.379Z,5.80
2019-01-06T03:26:28.204Z,6.50
2019-01-06T03:29:10.209Z,5.37
2019-01-06T03:31:43.190Z,5.67
2019-01-06T03:34:14.110Z,5.80
2019-01-06T03:36:49.692Z,6.10
2019-01-06T03:39:25.221Z,5.70
2019-01-06T03:42:11.378Z,5.37
2019-01-06T03:44:53.448Z,4.53
2019-01-06T03:47:35.445Z,5.23
2019-01-06T03:50:11.557Z,4.87
2019-01-06T03:52:57.942Z,5.00
2019-01-06T03:55:27.751Z,4.93
2019-01-06T03:57:57.572Z,4.77
2019-01-06T04:00:39.351Z,4.60
2019-01-06T04:03:25.918Z,4.77
2019-01-06T04:06:12.413Z,4.50
2019-01-06T04:08:45.204Z,4.00
2019-01-06T04:11:15.577Z,4.20
2019-01-06T04:13:48.169Z,4.97
2019-01-06T04:16:20.392Z,4.80
2019-01-06T04:18:53.394Z,4.77
2019-01-06T04:21:39.702Z,4.17
2019-01-06T04:24:21.628Z,4.10
2019-01-06T04:26:54.352Z,4.40
2019-01-06T04:29:40.413Z,4.53
2019-01-06T04:32:13.164Z,3.57
2019-01-06T04:34:42.980Z,3.90
2019-01-06T04:37:18.682Z,4.20
2019-01-06T04:39:54.617Z,3.50
2019-01-06T04:42:42.533Z,3.53
2019-01-06T04:45:12.343Z,3.73
2019-01-06T04:47:45.265Z,3.90
2019-01-06T04:50:15.121Z,3.70
2019-01-06T04:52:57.239Z,4.30
2019-01-06T04:55:27.127Z,3.50
2019-01-06T04:58:03.007Z,4.23
2019-01-06T05:00:49.473Z,4.10
2019-01-06T05:03:28.569Z,5.07
2019-01-06T05:06:10.173Z,4.10
2019-01-06T05:08:52.358Z,3.30
2019-01-06T05:11:38.604Z,3.30
2019-01-06T05:14:23.702Z,3.90
2019-01-06T05:16:56.083Z,3.90
2019-01-06T05:19:28.933Z,3.40
2019-01-06T05:27:40.728Z,4.10
2019-01-06T05:43:14.081Z,3.37
2019-01-06T05:45:45.832Z,3.93
2019-01-06T05:48:32.201Z,3.60
2019-01-06T06:38:19.669Z,3.15
2019-01-06T06:56:50.880Z,3.10
2019-01-06T06:59:23.611Z,2.80
2019-01-06T07:04:37.955Z,2.70
2019-01-06T07:07:19.686Z,2.90
2019-01-06T07:09:55.669Z,3.05
2019-01-06T07:12:25.485Z,2.70
2019-01-06T07:15:10.621Z,2.70
2019-01-06T07:17:58.676Z,2.90
2019-01-06T07:23:16.411Z,2.60
2019-01-06T07:28:48.273Z,3.70
2019-01-06T07:31:18.110Z,2.90
2019-01-06T07:33:57.188Z,3.00
2019-01-06T07:36:43.507Z,3.50
2019-01-06T07:39:29.885Z,3.10
2019-01-06T07:42:02.631Z,3.80
2019-01-06T07:44:32.473Z,3.73
2019-01-06T07:47:07.987Z,3.43
2019-01-06T07:49:43.757Z,3.40
2019-01-06T07:52:25.934Z,2.83
2019-01-06T07:54:58.875Z,2.93
2019-01-06T07:57:34.581Z,3.10
2019-01-06T08:00:15.391Z,3.47
2019-01-06T08:02:50.661Z,3.20
2019-01-06T08:05:20.540Z,3.00
2019-01-06T08:07:50.354Z,3.43
2019-01-06T08:10:20.212Z,3.03
2019-01-06T08:13:08.371Z,2.97
2019-01-06T08:15:51.373Z,2.93
2019-01-06T08:18:21.185Z,3.30
2019-01-06T08:21:08.514Z,3.70
2019-01-06T08:23:50.312Z,3.40
2019-01-06T08:26:36.448Z,3.20
2019-01-06T08:29:24.844Z,3.33
2019-01-06T08:32:11.468Z,2.80
2019-01-06T08:34:57.284Z,2.80
2019-01-06T08:37:33.069Z,2.73
2019-01-06T08:40:17.913Z,3.00
2019-01-06T08:43:03.999Z,2.67
2019-01-06T08:45:34.411Z,2.77
2019-01-06T08:48:04.342Z,2.73
2019-01-06T08:50:50.413Z,2.90
2019-01-06T08:53:20.245Z,3.03
2019-01-06T08:55:50.129Z,3.00
2019-01-06T08:58:36.563Z,2.83
2019-01-06T09:01:18.532Z,3.17
2019-01-06T09:03:48.366Z,2.57
2019-01-06T09:06:24.308Z,2.43
2019-01-06T09:09:09.409Z,2.17
2019-01-06T09:11:55.522Z,2.50
2019-01-06T09:14:25.324Z,2.33
2019-01-06T09:17:07.084Z,2.40
2019-01-06T09:19:36.935Z,2.33
2019-01-06T09:22:12.771Z,2.40
2019-01-06T09:24:59.138Z,2.60
2019-01-06T09:27:44.134Z,2.10
2019-01-06T09:30:30.492Z,2.37
2019-01-06T09:33:00.366Z,2.10
2019-01-06T09:41:08.693Z,2.30
2019-01-06T09:43:44.556Z,2.20
2019-01-06T09:46:14.356Z,2.33
2019-01-06T09:48:56.432Z,2.90
2019-01-06T09:51:42.215Z,2.40
2019-01-06T09:54:15.238Z,3.05
2019-01-06T09:57:01.324Z,2.80
2019-01-06T09:59:31.176Z,2.90
2019-01-06T10:02:15.902Z,2.30
2019-01-06T10:04:48.126Z,2.45
2019-01-06T10:07:20.882Z,2.40
2019-01-06T10:10:08.081Z,2.50
2019-01-06T10:12:37.903Z,2.33
2019-01-06T10:15:16.724Z,2.33
2019-01-06T10:17:55.445Z,2.00
2019-01-06T10:20:25.303Z,2.83
2019-01-06T10:23:00.918Z,2.27
2019-01-06T10:25:47.132Z,2.40
2019-01-06T10:28:33.818Z,2.20
2019-01-06T10:31:20.003Z,2.33
2019-01-06T10:33:55.794Z,2.40
2019-01-06T10:36:28.098Z,2.00
2019-01-06T10:38:57.947Z,2.10
2019-01-06T10:41:36.962Z,1.90
2019-01-06T11:18:30.449Z,2.00
2019-01-06T11:21:19.451Z,2.00
2019-01-06T11:23:52.009Z,2.15
2019-01-06T11:26:21.828Z,2.60
2019-01-06T11:29:03.884Z,2.00
2019-01-06T11:31:42.963Z,1.90
2019-01-06T11:34:27.933Z,1.80
2019-01-06T11:37:14.117Z,1.80
2019-01-06T11:39:49.923Z,1.90
2019-01-06T11:42:22.769Z,1.57
2019-01-06T11:44:52.609Z,1.90
2019-01-06T11:47:22.429Z,1.70
2019-01-06T11:50:09.817Z,2.00
2019-01-06T11:52:56.605Z,2.97
2019-01-06T11:55:26.440Z,2.53
2019-01-06T11:57:58.896Z,2.10
2019-01-06T12:00:47.259Z,2.30
2019-01-06T12:03:28.957Z,1.87
2019-01-06T12:06:07.406Z,2.03
2019-01-06T12:08:41.208Z,2.70
2019-01-06T12:11:17.233Z,2.60
2019-01-06T12:13:47.081Z,3.83
2019-01-06T12:16:16.965Z,4.70
2019-01-06T12:18:55.731Z,4.30
2019-01-06T12:21:25.558Z,1.80
2019-01-06T12:24:02.120Z,1.20
2019-01-06T12:26:37.900Z,1.40
2019-01-06T12:29:24.224Z,1.30
2019-01-06T12:32:03.272Z,1.23
2019-01-06T12:34:49.668Z,1.60
2019-01-06T12:37:25.489Z,1.50
2019-01-06T12:39:55.292Z,1.80
2019-01-06T12:42:41.568Z,1.60
2019-01-06T12:45:11.410Z,1.60
2019-01-06T12:47:57.495Z,1.80
2019-01-06T12:50:27.307Z,1.67
2019-01-06T12:53:13.437Z,1.60
2019-01-06T12:55:46.238Z,1.53
2019-01-06T12:58:22.185Z,1.60
2019-01-06T13:00:58.145Z,1.67
2019-01-06T13:03:30.684Z,2.10
2019-01-06T13:06:03.202Z,1.67
2019-01-06T13:08:35.668Z,1.70
2019-01-06T13:11:21.779Z,2.07
2019-01-06T13:14:03.838Z,1.80
2019-01-06T13:16:48.967Z,2.00
2019-01-06T13:19:22.555Z,2.10
2019-01-06T13:22:01.504Z,2.00
2019-01-06T13:24:49.332Z,2.40
2019-01-06T13:27:35.556Z,1.80
2019-01-06T13:30:06.568Z,2.43
2019-01-06T13:32:39.318Z,1.87
2019-01-06T13:35:25.681Z,2.07
2019-01-06T13:38:04.548Z,2.00
2019-01-06T13:40:37.057Z,2.37
2019-01-06T13:43:09.906Z,2.30
2019-01-06T13:45:57.754Z,2.30
2019-01-06T13:48:30.545Z,1.87
2019-01-06T13:51:00.401Z,1.83
2019-01-06T13:53:42.219Z,1.80
2019-01-06T13:56:30.352Z,1.63
2019-01-06T13:59:16.605Z,1.50
2019-01-06T14:01:46.448Z,1.80
2019-01-06T14:04:16.256Z,1.97
2019-01-06T14:06:55.280Z,1.70
2019-01-06T14:09:37.240Z,2.00
2019-01-06T14:12:07.052Z,1.90
2019-01-06T14:14:39.653Z,2.30
2019-01-06T14:17:21.433Z,2.00
2019-01-06T14:20:07.599Z,2.03
2019-01-06T14:22:37.420Z,2.13
2019-01-06T14:25:12.985Z,2.00
2019-01-06T14:27:59.133Z,1.77
2019-01-06T14:30:35.033Z,1.90
2019-01-06T14:33:14.081Z,1.97
2019-01-06T14:35:56.877Z,2.13
2019-01-06T14:38:29.826Z,2.63
2019-01-06T14:40:59.632Z,2.20
2019-01-06T14:43:35.653Z,2.00
2019-01-06T14:46:08.585Z,2.40
2019-01-06T14:48:38.461Z,3.10
2019-01-06T14:51:20.541Z,2.05
2019-01-06T14:53:50.389Z,1.90
2019-01-06T14:56:26.205Z,2.07
2019-01-06T14:58:56.049Z,1.83
2019-01-06T15:01:32.850Z,1.90
2019-01-06T15:04:14.684Z,2.10
2019-01-06T15:06:47.388Z,2.00
2019-01-06T15:09:19.778Z,2.20
2019-01-06T15:11:52.511Z,2.27
2019-01-06T15:14:37.297Z,2.20
2019-01-06T15:17:22.295Z,2.40
2019-01-06T15:19:54.794Z,2.37
2019-01-06T15:22:39.841Z,2.17
2019-01-06T15:25:27.545Z,2.73
2019-01-06T15:28:03.584Z,2.30
2019-01-06T15:30:33.400Z,2.70
2019-01-06T15:33:06.147Z,2.90
2019-01-06T15:35:38.737Z,2.40
2019-01-06T15:38:21.805Z,2.20
2019-01-06T15:41:08.001Z,2.30
2019-01-06T15:43:47.797Z,2.50
2019-01-06T15:46:33.932Z,2.93
2019-01-06T15:49:06.668Z,3.27
2019-01-06T15:51:48.513Z,3.97
2019-01-06T15:54:31.585Z,4.00
2019-01-06T15:57:13.297Z,4.73
2019-01-06T15:59:58.395Z,5.00
2019-01-06T16:02:44.481Z,8.53
2019-01-06T16:05:20.201Z,6.00
2019-01-06T16:08:04.952Z,5.33
2019-01-06T16:10:49.976Z,5.00
2019-01-06T16:13:26.621Z,5.83
2019-01-06T16:15:56.465Z,5.63
2019-01-06T16:18:28.969Z,6.70
2019-01-06T16:21:00.361Z,6.50
2019-01-06T16:23:33.034Z,5.80
2019-01-06T16:26:05.512Z,5.60
2019-01-06T16:28:41.020Z,6.20
2019-01-06T16:31:27.157Z,6.10
2019-01-06T16:34:15.116Z,5.93
2019-01-06T16:36:44.968Z,6.47
2019-01-06T16:39:32.937Z,5.93
2019-01-06T16:42:05.447Z,5.03
2019-01-06T16:44:44.413Z,5.30
2019-01-06T16:47:16.685Z,5.67
2019-01-06T16:50:03.217Z,6.67
2019-01-06T16:52:33.209Z,5.53
2019-01-06T16:55:08.948Z,5.47
2019-01-06T16:57:55.141Z,5.13
2019-01-06T17:00:43.285Z,5.03
2019-01-06T17:03:14.025Z,5.93
2019-01-06T17:06:00.395Z,5.83
2019-01-06T17:08:46.796Z,6.07
2019-01-06T17:11:22.624Z,7.47
2019-01-06T17:13:57.891Z,6.60
2019-01-06T17:16:30.461Z,6.70
2019-01-06T17:19:03.196Z,7.40
2019-01-06T17:21:42.229Z,7.20
2019-01-06T17:24:28.408Z,7.07
2019-01-06T17:27:14.750Z,7.37
2019-01-06T17:30:01.269Z,8.47
2019-01-06T17:32:47.319Z,8.37
2019-01-06T17:35:23.293Z,8.40
2019-01-06T17:37:53.145Z,8.07
2019-01-06T17:40:34.832Z,7.10
2019-01-06T17:43:20.744Z,7.10
2019-01-06T17:45:56.347Z,7.73
2019-01-06T17:48:26.181Z,6.60
2019-01-06T17:50:58.745Z,7.33
2019-01-06T17:53:31.468Z,7.20
2019-01-06T17:56:03.995Z,8.03
2019-01-06T17:58:42.848Z,7.63
2019-01-06T18:01:12.680Z,7.47
2019-01-06T18:03:51.446Z,7.80
2019-01-06T18:06:36.317Z,8.17
2019-01-06T18:09:16.625Z,8.30
2019-01-06T18:11:47.828Z,7.50
2019-01-06T18:14:26.693Z,8.10
2019-01-06T18:16:56.553Z,7.80
2019-01-06T18:19:27.314Z,7.60
2019-01-06T18:21:57.188Z,7.90
2019-01-06T18:24:29.976Z,7.40
2019-01-06T18:27:08.546Z,8.20
2019-01-06T18:29:41.085Z,9.00
2019-01-06T18:32:26.169Z,9.17
2019-01-06T18:34:58.673Z,9.17
2019-01-06T18:37:34.481Z,9.63
2019-01-06T18:40:19.425Z,10.40
2019-01-06T18:43:05.748Z,10.33
2019-01-06T18:45:35.581Z,10.70
2019-01-06T18:48:05.401Z,10.10
2019-01-06T18:50:51.736Z,10.53
2019-01-06T18:53:27.621Z,11.37
2019-01-06T18:56:15.753Z,12.40
2019-01-06T18:58:54.653Z,12.70
2019-01-06T19:01:39.548Z,16.67
2019-01-06T19:04:12.325Z,29.00
2019-01-06T19:06:42.179Z,27.10
2019-01-06T19:09:20.996Z,24.10
2019-01-06T19:11:56.511Z,26.40
2019-01-06T19:14:35.147Z,30.00
2019-01-06T19:17:07.977Z,27.00
2019-01-06T19:19:54.210Z,14.97
2019-01-06T19:22:24.101Z,14.67
2019-01-06T19:24:53.952Z,12.43
2019-01-06T19:27:42.005Z,13.43
2019-01-06T19:30:30.389Z,14.13
2019-01-06T19:33:02.885Z,14.10
2019-01-06T19:35:47.965Z,13.40
2019-01-06T19:38:20.760Z,12.40
2019-01-06T19:40:50.628Z,13.37
2019-01-06T19:43:36.506Z,11.97
2019-01-06T19:46:22.668Z,12.50
2019-01-06T19:49:10.732Z,12.20
2019-01-06T19:51:57.178Z,13.50
2019-01-06T19:54:36.003Z,11.60
2019-01-06T19:57:05.869Z,12.10
2019-01-06T19:59:35.727Z,11.40
2019-01-06T20:02:23.684Z,11.50
2019-01-06T20:05:02.580Z,11.73
2019-01-06T20:07:44.364Z,11.43
2019-01-06T20:10:26.445Z,11.80
2019-01-06T20:12:58.964Z,10.93
2019-01-06T20:15:34.986Z,11.17
2019-01-06T20:18:07.816Z,12.20
2019-01-06T20:20:37.644Z,10.57
2019-01-06T20:23:24.043Z,11.27
2019-01-06T20:25:53.966Z,11.97
2019-01-06T20:28:40.351Z,21.50
2019-01-06T20:31:10.213Z,17.60
2019-01-06T20:34:05.080Z,17.33
2019-01-06T20:36:35.847Z,19.17
2019-01-06T20:39:23.373Z,17.10
2019-01-06T20:41:58.699Z,16.27
2019-01-06T20:44:30.668Z,17.50
2019-01-06T20:47:12.633Z,14.00
2019-01-06T20:49:48.417Z,13.90
2019-01-06T20:52:41.777Z,13.30
2019-01-06T20:55:23.239Z,14.73
2019-01-06T20:58:09.652Z,14.80
2019-01-06T21:00:45.464Z,15.47
2019-01-06T21:03:30.628Z,14.03
2019-01-06T21:06:03.615Z,12.53
2019-01-06T21:08:33.474Z,13.13
2019-01-06T21:11:06.281Z,13.23
2019-01-06T21:13:47.862Z,13.03
2019-01-06T21:16:34.525Z,12.47
2019-01-06T21:19:08.499Z,12.57
2019-01-06T21:21:44.625Z,13.00
2019-01-06T21:24:20.091Z,12.17
2019-01-06T21:26:49.927Z,12.10
2019-01-06T21:29:19.763Z,12.47
2019-01-06T21:31:49.596Z,13.30
2019-01-06T21:34:35.744Z,11.83
2019-01-06T21:37:22.430Z,12.57
2019-01-06T21:40:09.194Z,12.83
2019-01-06T21:42:51.319Z,12.53
2019-01-06T21:45:27.269Z,12.60
2019-01-06T21:48:13.602Z,12.63
2019-01-06T21:50:46.489Z,12.67
2019-01-06T21:53:32.905Z,11.37
2019-01-06T21:56:05.729Z,12.30
2019-01-06T21:58:41.666Z,13.60
2019-01-06T22:01:27.785Z,13.77
2019-01-06T22:04:03.640Z,13.10
2019-01-06T22:06:33.589Z,11.47
2019-01-06T22:09:06.185Z,12.33
2019-01-06T22:11:36.111Z,9.80
2019-01-06T22:14:05.933Z,23.97
2019-01-06T22:16:38.653Z,24.70
2019-01-06T22:19:17.388Z,14.80
2019-01-06T22:21:52.961Z,18.40
2019-01-06T22:24:22.837Z,15.33
2019-01-06T22:27:04.673Z,12.33
2019-01-06T22:29:46.761Z,21.60
2019-01-06T22:32:19.297Z,17.67
2019-01-06T22:35:04.164Z,10.73
2019-01-06T22:37:50.213Z,10.43
2019-01-06T22:40:29.140Z,10.20
2019-01-06T22:43:15.568Z,9.43
2019-01-06T22:46:02.213Z,10.87
2019-01-06T22:48:32.933Z,10.53
2019-01-06T22:51:11.824Z,9.50
2019-01-06T22:53:53.899Z,8.80
2019-01-06T22:56:29.585Z,10.40
2019-01-06T22:59:14.431Z,9.40
2019-01-06T23:01:44.349Z,9.57
2019-01-06T23:04:17.020Z,9.87
2019-01-06T23:06:52.962Z,8.73
2019-01-06T23:09:25.502Z,9.30
2019-01-06T23:12:11.608Z,9.90
2019-01-06T23:14:53.585Z,9.30
2019-01-06T23:17:29.351Z,9.67
2019-01-06T23:20:04.988Z,10.13
2019-01-06T23:22:53.174Z,9.63
2019-01-06T23:25:28.768Z,9.80
2019-01-06T23:28:15.036Z,10.57
2019-01-06T23:30:53.984Z,9.93
2019-01-06T23:33:23.796Z,10.60
2019-01-06T23:35:59.621Z,11.10
2019-01-06T23:38:41.436Z,9.67
2019-01-06T23:41:23.517Z,10.17
2019-01-06T23:44:09.673Z,9.80
2019-01-06T23:46:45.705Z,10.60
2019-01-06T23:49:21.524Z,11.27
2019-01-06T23:51:51.385Z,9.90
2019-01-06T23:54:33.240Z,10.50
2019-01-06T23:57:03.113Z,10.80
2019-01-06T23:59:41.888Z,11.30
